Time;durP1;ratioP1;P1;durP2;ratioP2;P2;SDS_P1;SDS_P2;PMS_P1;PMS_P2;Temp;Humidity;BMP_temperature;BMP_pressure;BME280_temperature;BME280_humidity;BME280_pressure;Samples;Min_cycle;Max_cycle;Signal;HPM_P1;HPM_P2
2021/12/18 00:00:10;;;;;;;11.43;6.27;;;;;;;10.19;75.56;102903.66;5030461;28;20168;-78
2021/12/18 00:02:35;;;;;;;10.23;5.73;;;;;;;9.71;76.75;102904.50;5029180;28;20825;-79
2021/12/18 00:05:01;;;;;;;14.50;7.17;;;;;;;10.15;75.15;102899.31;5047506;28;20198;-79
2021/12/18 00:07:26;;;;;;;13.43;7.07;;;;;;;9.94;76.35;102905.88;5036319;28;20179;-77
2021/12/18 00:09:53;;;;;;;9.40;6.53;;;;;;;9.86;75.38;102883.81;5041645;28;20167;-78
2021/12/18 00:12:18;;;;;;;12.87;6.63;;;;;;;10.02;75.78;102894.16;5037880;28;20189;-80
2021/12/18 00:14:44;;;;;;;11.33;6.60;;;;;;;9.16;78.59;102911.56;5055400;28;20151;-79
2021/12/18 00:17:09;;;;;;;10.37;6.57;;;;;;;10.17;76.25;102909.03;5042343;28;20233;-78
2021/12/18 00:19:35;;;;;;;13.13;7.47;;;;;;;10.31;75.15;102891.00;5044004;28;20226;-78
2021/12/18 00:22:00;;;;;;;13.13;7.00;;;;;;;10.31;74.98;102892.78;5044371;28;20625;-78
2021/12/18 00:24:26;;;;;;;11.27;6.80;;;;;;;9.62;77.16;102909.97;5028016;28;20207;-78
2021/12/18 00:26:51;;;;;;;10.23;6.27;;;;;;;10.42;74.90;102903.28;5044483;28;20179;-78
2021/12/18 00:29:16;;;;;;;11.00;6.60;;;;;;;10.48;74.88;102909.38;5027566;28;20217;-77
2021/12/18 00:31:41;;;;;;;11.53;6.50;;;;;;;10.68;73.99;102900.06;5028449;28;20214;-78
2021/12/18 00:34:07;;;;;;;10.60;6.57;;;;;;;10.63;74.39;102900.16;5060660;22;20349;-71
2021/12/18 00:36:32;;;;;;;14.13;7.77;;;;;;;10.39;74.69;102900.63;5036531;28;20180;-72
2021/12/18 00:38:57;;;;;;;12.90;8.07;;;;;;;10.63;73.79;102893.03;5035952;28;20604;-71
2021/12/18 00:44:03;;;;;;;9.40;7.00;;;;;;;10.57;73.38;102889.63;5056536;28;20206;-72
2021/12/18 00:46:35;;;;;;;9.80;6.63;;;;;;;10.61;73.81;102897.53;5039171;28;20225;-71
2021/12/18 00:49:01;;;;;;;8.33;6.43;;;;;;;10.15;76.24;102920.66;5054167;28;20175;-71
2021/12/18 00:51:26;;;;;;;11.37;6.70;;;;;;;10.18;74.47;102878.78;5036193;28;20186;-71
2021/12/18 00:53:52;;;;;;;11.77;7.83;;;;;;;9.29;78.17;102902.47;5036017;28;20667;-72
2021/12/18 00:56:17;;;;;;;10.53;6.87;;;;;;;9.86;77.79;102903.34;5035905;28;20543;-71
2021/12/18 00:58:43;;;;;;;11.73;7.57;;;;;;;10.55;75.16;102894.09;5053634;28;20172;-71
2021/12/18 01:01:10;;;;;;;10.30;7.67;;;;;;;10.54;74.36;102890.56;5053691;28;20186;-71
2021/12/18 01:03:37;;;;;;;9.77;7.57;;;;;;;10.49;75.54;102907.59;5036092;28;20196;-72
2021/12/18 01:06:03;;;;;;;10.33;8.33;;;;;;;10.73;73.97;102898.19;5053451;28;20178;-73
2021/12/18 01:08:28;;;;;;;11.67;8.30;;;;;;;10.65;73.82;102891.22;5053491;28;20219;-71
2021/12/18 01:13:36;;;;;;;10.23;8.60;;;;;;;10.34;75.29;102890.94;5053884;28;20245;-72
2021/12/18 01:16:12;;;;;;;10.47;8.23;;;;;;;10.42;74.49;102881.94;5035570;28;20168;-72
2021/12/18 01:24:06;;;;;;;10.13;7.70;;;;;;;10.06;75.84;102888.81;5041315;28;20213;-71
2021/12/18 01:26:31;;;;;;;12.03;8.60;;;;;;;10.28;75.74;102895.50;5040163;28;20168;-71
2021/12/18 01:28:57;;;;;;;13.10;9.00;;;;;;;10.53;75.35;102887.91;5053690;28;20556;-71
2021/12/18 01:31:22;;;;;;;12.90;9.83;;;;;;;10.32;75.41;102887.41;5035583;28;20631;-71
2021/12/18 01:33:47;;;;;;;10.90;9.03;;;;;;;10.25;75.77;102884.91;5053011;28;20203;-71
2021/12/18 01:36:13;;;;;;;17.37;10.13;;;;;;;9.89;76.60;102897.97;5053682;28;20182;-71
2021/12/18 01:38:38;;;;;;;13.10;9.57;;;;;;;10.40;76.51;102899.72;5035299;28;20582;-71
2021/12/18 01:41:04;;;;;;;16.43;10.30;;;;;;;10.61;75.24;102899.31;5035339;28;20180;-71
2021/12/18 01:44:22;;;;;;;14.43;10.17;;;;;;;10.30;75.58;102893.69;5035589;28;20226;-71
2021/12/18 01:52:17;;;;;;;13.97;9.80;;;;;;;9.97;76.66;102882.69;5038099;28;20170;-71
2021/12/18 01:54:44;;;;;;;15.43;10.57;;;;;;;9.23;79.51;102908.78;5020831;28;20242;-71
2021/12/18 01:57:10;;;;;;;15.43;10.60;;;;;;;9.65;79.45;102912.59;5053089;28;20171;-70
2021/12/18 01:59:43;;;;;;;15.83;11.17;;;;;;;10.00;77.35;102892.44;5035564;28;20233;-71
2021/12/18 02:02:08;;;;;;;19.07;10.93;;;;;;;9.14;80.52;102905.38;5035890;28;20564;-71
2021/12/18 02:04:34;;;;;;;15.57;10.07;;;;;;;9.11;81.83;102926.75;5034981;28;20238;-71
2021/12/18 02:07:00;;;;;;;17.60;11.60;;;;;;;10.03;79.22;102917.31;5035656;28;20183;-71
2021/12/18 02:09:34;;;;;;;16.00;11.23;;;;;;;10.09;78.74;102910.97;5053634;28;20184;-71
2021/12/18 02:12:00;;;;;;;15.70;11.33;;;;;;;10.08;77.62;102886.97;5037195;28;20155;-71
2021/12/18 02:20:11;;;;;;;18.53;11.23;;;;;;;10.91;75.73;102904.03;5037717;28;20167;-71
2021/12/18 02:22:36;;;;;;;16.87;11.33;;;;;;;10.80;75.32;102895.38;5035855;28;20172;-72
2021/12/18 02:25:03;;;;;;;17.67;11.33;;;;;;;10.68;75.71;102900.06;5052605;28;20261;-71
2021/12/18 02:27:28;;;;;;;15.83;10.23;;;;;;;10.65;76.35;102893.88;5034845;28;20195;-71
2021/12/18 02:29:53;;;;;;;14.00;10.70;;;;;;;10.86;75.60;102883.66;5035689;28;20183;-71
2021/12/18 02:32:21;;;;;;;16.87;11.30;;;;;;;10.60;76.51;102900.22;5056590;28;20175;-71
2021/12/18 02:34:52;;;;;;;16.77;11.93;;;;;;;10.79;76.15;102887.38;5038239;28;20686;-71
2021/12/18 02:37:23;;;;;;;15.60;10.90;;;;;;;10.76;76.43;102896.31;5056585;28;20164;-71
2021/12/18 02:40:47;;;;;;;15.93;10.37;;;;;;;10.32;77.84;102884.75;5038433;28;20562;-71
2021/12/18 02:42:39;;;;;;;15.47;9.90;;;;;;;10.32;77.26;102862.50;5055908;28;20276;-72
2021/12/18 02:45:07;;;;;;;12.97;8.93;;;;;;;10.59;76.50;102871.75;5038456;28;20397;-71
2021/12/18 02:47:32;;;;;;;13.87;9.00;;;;;;;10.14;78.38;102863.72;5038210;28;20722;-71
2021/12/18 02:49:57;;;;;;;9.07;6.33;;;;;;;10.21;78.64;102864.53;5055976;28;20172;-71
2021/12/18 02:52:28;;;;;;;9.17;6.37;;;;;;;10.28;79.15;102880.38;5038211;28;20186;-71
2021/12/18 02:54:53;;;;;;;10.03;6.30;;;;;;;10.14;78.30;102846.84;5038348;28;20191;-70
2021/12/18 02:57:18;;;;;;;8.37;6.60;;;;;;;9.91;79.67;102856.13;5040065;28;20179;-70
2021/12/18 02:59:50;;;;;;;10.77;6.03;;;;;;;10.33;78.78;102848.25;5038446;28;20206;-71
2021/12/18 03:02:17;;;;;;;10.37;6.00;;;;;;;10.02;78.22;102834.59;5038826;28;20168;-71
2021/12/18 03:04:45;;;;;;;9.33;5.67;;;;;;;10.43;78.77;102863.19;5037848;28;20211;-71
2021/12/18 03:07:13;;;;;;;10.37;6.47;;;;;;;10.53;78.44;102847.88;5021903;28;20381;-71
2021/12/18 03:18:56;;;;;;;8.97;5.47;;;;;;;10.41;79.22;102842.78;5055613;28;20179;-71
2021/12/18 03:23:33;;;;;;;8.27;5.03;;;;;;;10.13;80.04;102859.31;5040216;28;20282;-71
2021/12/18 03:26:00;;;;;;;8.13;4.80;;;;;;;10.24;79.58;102846.66;5022921;28;20187;-73
2021/12/18 03:28:26;;;;;;;6.90;4.07;;;;;;;10.48;79.09;102839.97;5038024;28;20717;-73
2021/12/18 03:30:51;;;;;;;6.23;4.00;;;;;;;10.14;79.61;102833.50;5037549;28;20178;-72
2021/12/18 03:33:17;;;;;;;7.77;4.50;;;;;;;9.81;81.43;102846.56;5037228;28;20207;-72
2021/12/18 03:35:44;;;;;;;9.37;4.30;;;;;;;10.09;80.59;102827.38;5055434;28;20186;-72
2021/12/18 03:38:10;;;;;;;7.07;4.43;;;;;;;9.84;82.30;102851.84;5055328;28;20178;-72
2021/12/18 03:40:35;;;;;;;4.67;3.33;;;;;;;9.67;82.60;102853.94;5055473;28;20259;-72
2021/12/18 03:43:01;;;;;;;4.83;2.90;;;;;;;9.87;82.19;102846.44;5054346;28;20226;-72
2021/12/18 03:45:26;;;;;;;6.33;3.60;;;;;;;10.41;79.31;102833.00;5055192;28;20196;-72
2021/12/18 03:47:52;;;;;;;6.93;3.80;;;;;;;10.51;78.76;102833.66;5055168;28;20176;-71
2021/12/18 03:50:17;;;;;;;5.00;3.20;;;;;;;10.58;78.80;102833.50;5037685;28;20178;-71
2021/12/18 03:52:43;;;;;;;6.87;4.30;;;;;;;9.63;81.99;102853.06;5037861;28;20199;-71
2021/12/18 03:55:08;;;;;;;7.20;4.00;;;;;;;10.29;80.63;102847.44;5054727;28;20172;-70
2021/12/18 03:57:34;;;;;;;8.33;3.97;;;;;;;9.76;81.30;102842.22;5036751;28;20181;-71
2021/12/18 03:59:59;;;;;;;6.93;4.23;;;;;;;10.15;81.93;102870.81;5055482;28;20247;-72
2021/12/18 04:02:24;;;;;;;9.23;4.80;;;;;;;10.31;81.83;102866.09;5055077;28;20539;-71
2021/12/18 04:04:50;;;;;;;7.27;3.87;;;;;;;10.80;79.25;102855.31;5055175;28;20215;-71
2021/12/18 04:07:15;;;;;;;9.20;5.03;;;;;;;10.79;79.20;102863.34;5036928;28;20548;-70
2021/12/18 04:09:41;;;;;;;6.97;4.07;;;;;;;10.82;78.78;102855.25;5054838;28;20179;-70
2021/12/18 04:12:07;;;;;;;9.07;4.90;;;;;;;10.46;80.72;102859.59;5036891;28;20659;-70
2021/12/18 04:14:33;;;;;;;7.33;4.57;;;;;;;10.76;78.95;102850.03;5054064;28;20231;-71
2021/12/18 04:16:58;;;;;;;8.90;4.53;;;;;;;10.65;78.97;102840.47;5054582;28;20206;-71
2021/12/18 04:19:23;;;;;;;7.10;3.93;;;;;;;10.56;79.54;102840.66;5037011;28;20180;-71
2021/12/18 04:21:49;;;;;;;5.37;3.93;;;;;;;10.67;79.02;102851.13;5036132;28;20167;-71
2021/12/18 04:24:14;;;;;;;6.40;3.63;;;;;;;10.80;79.07;102852.63;5036566;28;20195;-71
2021/12/18 04:26:40;;;;;;;6.20;4.00;;;;;;;10.60;79.35;102833.47;5036454;28;20164;-71
2021/12/18 04:29:06;;;;;;;8.10;3.80;;;;;;;10.47;79.65;102842.66;5054001;28;20168;-71
2021/12/18 04:31:35;;;;;;;4.33;2.93;;;;;;;10.51;80.96;102842.56;5036128;28;20672;-71
2021/12/18 04:34:01;;;;;;;5.43;3.20;;;;;;;10.56;80.08;102831.78;5035979;28;20199;-71
2021/12/18 04:36:26;;;;;;;4.83;2.70;;;;;;;10.22;81.64;102842.25;5036166;28;20187;-71
2021/12/18 04:38:52;;;;;;;4.03;2.90;;;;;;;10.08;82.49;102842.50;5036197;28;20237;-71
2021/12/18 04:41:35;;;;;;;6.93;3.17;;;;;;;10.26;81.14;102834.16;5053566;28;20183;-70
2021/12/18 04:44:00;;;;;;;3.93;2.83;;;;;;;10.42;80.73;102817.84;5053612;28;20206;-70
2021/12/18 04:46:25;;;;;;;5.97;3.33;;;;;;;10.65;79.93;102827.13;5053521;28;20258;-70
2021/12/18 04:48:51;;;;;;;4.63;3.00;;;;;;;10.68;79.84;102820.81;5053984;28;20210;-71
2021/12/18 04:51:16;;;;;;;3.93;2.63;;;;;;;10.52;80.51;102820.28;5035980;28;20214;-70
2021/12/18 04:53:41;;;;;;;3.27;2.37;;;;;;;10.62;79.99;102824.50;5053530;28;20195;-70
2021/12/18 04:56:06;;;;;;;3.67;2.27;;;;;;;10.68;79.52;102826.16;5053494;28;20275;-71
2021/12/18 04:58:32;;;;;;;3.67;2.40;;;;;;;10.66;79.69;102811.97;5053416;28;20176;-71
2021/12/18 05:00:57;;;;;;;2.67;2.13;;;;;;;10.68;79.61;102826.16;5053453;28;20175;-71
2021/12/18 05:03:23;;;;;;;3.40;2.33;;;;;;;10.53;80.86;102832.72;5035708;28;20687;-71
2021/12/18 05:05:48;;;;;;;3.53;2.03;;;;;;;10.58;80.16;102822.81;5035520;28;20199;-71
2021/12/18 05:08:13;;;;;;;3.07;1.90;;;;;;;10.51;79.96;102813.19;5053417;28;20176;-70
2021/12/18 05:10:39;;;;;;;2.40;1.70;;;;;;;10.44;80.59;102821.38;5035370;28;20218;-71
2021/12/18 05:13:04;;;;;;;2.13;1.60;;;;;;;10.55;79.94;102819.34;5035357;28;20191;-71
2021/12/18 05:15:30;;;;;;;2.30;1.60;;;;;;;10.53;80.10;102815.84;5035377;28;20168;-70
2021/12/18 05:17:55;;;;;;;4.47;1.80;;;;;;;10.12;81.68;102814.84;5036179;28;20251;-71
2021/12/18 05:20:20;;;;;;;2.57;1.77;;;;;;;10.10;81.80;102819.34;5036268;28;20178;-71
2021/12/18 05:22:46;;;;;;;2.53;1.63;;;;;;;10.06;81.91;102817.66;5035299;28;20183;-71
2021/12/18 05:25:11;;;;;;;2.90;1.90;;;;;;;10.05;81.40;102805.22;5035189;28;20199;-71
2021/12/18 05:27:37;;;;;;;3.67;1.97;;;;;;;10.02;82.14;102818.59;5035485;28;20535;-70
2021/12/18 05:30:09;;;;;;;3.97;2.00;;;;;;;10.43;82.19;102833.84;5035251;28;20167;-71
2021/12/18 05:32:34;;;;;;;5.70;2.47;;;;;;;10.27;80.97;102798.56;5035033;28;20267;-72
2021/12/18 05:35:00;;;;;;;5.10;3.17;;;;;;;9.80;82.46;102817.25;5034969;28;20675;-71
2021/12/18 05:39:50;;;;;;;3.97;3.00;;;;;;;10.14;81.66;102807.69;5053184;28;20270;-71
2021/12/18 05:42:16;;;;;;;4.87;3.10;;;;;;;10.30;81.75;102805.63;5018677;28;20175;-71
2021/12/18 05:44:42;;;;;;;4.27;2.93;;;;;;;9.68;83.28;102803.25;5052715;28;20214;-72
2021/12/18 05:47:07;;;;;;;4.80;2.60;;;;;;;9.35;83.66;102795.81;5035091;28;20180;-71
2021/12/18 05:49:32;;;;;;;4.87;2.70;;;;;;;9.91;82.94;102805.47;5018455;28;20172;-72
2021/12/18 05:51:58;;;;;;;4.07;2.60;;;;;;;9.95;82.53;102798.28;5034830;28;20178;-71
2021/12/18 05:54:24;;;;;;;5.03;3.23;;;;;;;10.21;80.86;102792.47;5035030;28;20195;-72
2021/12/18 05:56:49;;;;;;;2.90;2.33;;;;;;;9.78;82.45;102789.72;5034615;28;20179;-71
2021/12/18 05:59:14;;;;;;;3.70;2.00;;;;;;;9.76;82.63;102804.88;5052569;28;20176;-71
2021/12/18 06:01:40;;;;;;;1.83;1.50;;;;;;;9.33;83.32;102784.31;5052505;28;20171;-72
2021/12/18 06:04:05;;;;;;;2.27;1.43;;;;;;;9.08;84.36;102816.66;5053077;28;20245;-72
2021/12/18 06:06:31;;;;;;;1.73;1.27;;;;;;;9.33;83.51;102785.19;5056036;28;20571;-72
2021/12/18 06:08:56;;;;;;;2.57;1.47;;;;;;;9.40;82.98;102775.28;5039148;28;20370;-71
2021/12/18 06:11:22;;;;;;;1.90;1.23;;;;;;;9.47;83.44;102787.59;5038612;28;20199;-72
2021/12/18 06:13:50;;;;;;;1.30;1.13;;;;;;;9.63;82.95;102778.41;5038767;28;20689;-71
2021/12/18 06:16:17;;;;;;;3.70;1.70;;;;;;;9.73;82.56;102767.59;5038433;28;20555;-71
2021/12/18 06:18:44;;;;;;;2.47;1.63;;;;;;;9.56;83.47;102768.78;5056226;28;20174;-71
2021/12/18 06:21:13;;;;;;;2.37;1.90;;;;;;;9.76;81.94;102760.44;5038778;28;20172;-71
2021/12/18 06:23:40;;;;;;;3.87;2.37;;;;;;;9.81;81.99;102760.34;5038379;28;20313;-71
2021/12/18 06:26:05;;;;;;;3.77;2.07;;;;;;;9.71;82.36;102751.63;5038372;28;20175;-72
2021/12/18 06:28:30;;;;;;;3.17;2.00;;;;;;;9.70;82.66;102760.53;5056271;28;20172;-72
2021/12/18 06:30:56;;;;;;;2.37;1.50;;;;;;;9.43;82.78;102759.25;5056027;28;20180;-72
2021/12/18 06:33:21;;;;;;;2.40;1.83;;;;;;;9.40;83.02;102748.66;5046564;28;20214;-72
2021/12/18 06:35:46;;;;;;;1.80;1.40;;;;;;;9.38;83.08;102762.00;5052856;28;20183;-72
2021/12/18 06:38:12;;;;;;;4.63;1.87;;;;;;;9.17;82.86;102745.47;5053113;28;20170;-72
2021/12/18 06:40:37;;;;;;;3.60;1.63;;;;;;;8.59;84.63;102760.59;5035107;28;20184;-73
2021/12/18 06:43:03;;;;;;;2.23;1.47;;;;;;;8.97;83.68;102752.03;5024220;28;20199;-73
2021/12/18 06:45:28;;;;;;;3.37;1.50;;;;;;;8.96;83.67;102744.94;5057695;28;20635;-72
2021/12/18 06:47:54;;;;;;;3.87;2.07;;;;;;;9.07;84.23;102769.63;5058437;28;20176;-72
2021/12/18 06:50:20;;;;;;;4.40;2.33;;;;;;;9.04;83.78;102767.00;5023771;28;20181;-73
2021/12/18 06:52:46;;;;;;;3.93;2.47;;;;;;;9.10;83.05;102742.06;5040614;28;20206;-72
2021/12/18 06:55:11;;;;;;;4.73;2.90;;;;;;;9.01;83.10;102739.53;5024901;28;20636;-73
2021/12/18 06:57:37;;;;;;;5.33;3.10;;;;;;;8.85;83.36;102756.66;5024007;28;20632;-73
2021/12/18 07:00:08;;;;;;;6.63;2.83;;;;;;;8.51;84.92;102780.22;5040481;28;20188;-73
2021/12/18 07:02:33;;;;;;;4.77;3.07;;;;;;;8.19;85.32;102786.81;5041373;28;20165;-72
2021/12/18 07:04:58;;;;;;;5.20;3.23;;;;;;;8.61;85.13;102787.19;5023015;28;20563;-73
2021/12/18 07:07:24;;;;;;;5.13;3.03;;;;;;;8.50;85.02;102773.13;5059748;28;20223;-73
2021/12/18 07:09:49;;;;;;;6.17;3.20;;;;;;;8.75;84.14;102775.44;5042069;28;20176;-73
2021/12/18 07:12:15;;;;;;;4.97;2.80;;;;;;;8.54;84.58;102781.03;5057248;28;20168;-73
2021/12/18 07:14:40;;;;;;;6.80;3.43;;;;;;;8.82;84.00;102759.38;5039824;28;20198;-73
2021/12/18 07:17:05;;;;;;;8.33;4.63;;;;;;;9.06;83.07;102756.31;5038087;28;20216;-73
2021/12/18 07:19:31;;;;;;;9.60;4.70;;;;;;;9.16;82.69;102751.72;5022276;28;20184;-73
2021/12/18 07:21:56;;;;;;;10.97;5.37;;;;;;;9.39;81.43;102739.78;5038664;28;20234;-73
2021/12/18 07:24:21;;;;;;;8.47;4.57;;;;;;;8.89;82.17;102734.38;5055191;28;20210;-72
2021/12/18 07:26:47;;;;;;;7.90;4.50;;;;;;;9.43;81.91;102753.91;5055372;28;20186;-72
2021/12/18 07:29:12;;;;;;;8.87;4.30;;;;;;;9.24;82.37;102763.13;5037653;28;20552;-72
2021/12/18 07:31:38;;;;;;;8.03;4.13;;;;;;;9.40;81.81;102754.84;5055489;28;20178;-72
2021/12/18 07:34:03;;;;;;;7.83;4.10;;;;;;;9.25;81.80;102743.56;5037105;28;20203;-72
2021/12/18 07:36:29;;;;;;;7.27;3.47;;;;;;;9.13;82.26;102749.09;5037539;28;20255;-72
2021/12/18 07:38:54;;;;;;;5.80;3.20;;;;;;;9.01;82.86;102740.44;5055044;28;20635;-72
2021/12/18 07:41:19;;;;;;;6.03;3.40;;;;;;;9.03;82.93;102749.25;5037837;28;20172;-72
2021/12/18 07:43:45;;;;;;;5.40;2.90;;;;;;;8.99;82.85;102734.25;5037040;28;20205;-72
2021/12/18 07:46:10;;;;;;;4.63;2.70;;;;;;;8.86;83.22;102732.66;5055018;28;20182;-72
2021/12/18 07:48:35;;;;;;;3.90;2.73;;;;;;;8.85;83.63;102741.56;5020539;28;20182;-72
2021/12/18 07:51:01;;;;;;;3.93;2.50;;;;;;;8.62;83.86;102730.38;5054757;28;20231;-72
2021/12/18 07:53:26;;;;;;;4.50;2.80;;;;;;;8.78;83.71;102742.56;5054997;28;20195;-72
2021/12/18 07:55:51;;;;;;;5.90;3.37;;;;;;;8.93;83.33;102746.78;5055111;28;20179;-72
2021/12/18 07:58:16;;;;;;;10.40;5.30;;;;;;;9.15;82.67;102741.97;5054534;28;20181;-72
2021/12/18 08:00:42;;;;;;;4.97;2.40;;;;;;;8.66;83.78;102764.03;5055319;28;20209;-73
2021/12/18 08:03:08;;;;;;;5.60;2.90;;;;;;;8.87;83.80;102755.72;5038242;28;20233;-73
2021/12/18 08:05:33;;;;;;;4.37;2.77;;;;;;;8.85;83.74;102754.00;5055084;28;20234;-72
2021/12/18 08:07:58;;;;;;;5.73;2.63;;;;;;;9.18;82.80;102755.25;5036956;28;20175;-72
2021/12/18 08:10:24;;;;;;;5.63;3.07;;;;;;;9.32;82.11;102732.81;5037411;28;20174;-72
2021/12/18 08:12:49;;;;;;;4.87;2.53;;;;;;;9.27;81.74;102734.63;5036969;28;20217;-72
2021/12/18 08:15:14;;;;;;;9.33;4.73;;;;;;;9.36;82.17;102746.94;5037024;28;20202;-72
2021/12/18 08:17:39;;;;;;;6.70;3.60;;;;;;;9.13;82.93;102751.78;5054788;28;20201;-72
2021/12/18 08:20:05;;;;;;;8.47;3.77;;;;;;;8.96;83.75;102763.59;5020151;28;20182;-72
2021/12/18 08:22:31;;;;;;;5.77;2.70;;;;;;;8.81;84.06;102742.50;5036566;28;20174;-72
2021/12/18 08:24:56;;;;;;;3.43;2.00;;;;;;;8.65;84.71;102746.31;5037000;28;20210;-73
2021/12/18 08:27:21;;;;;;;4.53;2.50;;;;;;;9.17;84.79;102761.47;5054726;28;20654;-73
2021/12/18 08:29:47;;;;;;;4.80;2.33;;;;;;;8.89;83.81;102735.28;5054154;28;20172;-72
2021/12/18 08:32:12;;;;;;;2.53;2.00;;;;;;;9.14;83.42;102732.22;5036382;28;20207;-72
2021/12/18 08:34:37;;;;;;;5.10;2.40;;;;;;;8.69;84.14;102737.38;5036458;28;20202;-72
2021/12/18 08:37:03;;;;;;;5.57;3.10;;;;;;;9.19;83.71;102749.00;5036338;28;20177;-73
2021/12/18 08:39:28;;;;;;;4.83;2.63;;;;;;;8.94;83.42;102748.53;5038409;28;20189;-73
2021/12/18 08:41:54;;;;;;;3.97;1.83;;;;;;;9.07;83.33;102761.63;5036253;28;20179;-72
2021/12/18 08:44:19;;;;;;;2.10;1.47;;;;;;;8.86;83.95;102747.75;5019422;28;20302;-72
2021/12/18 08:46:45;;;;;;;2.70;1.63;;;;;;;9.01;83.76;102743.09;5035867;28;20249;-72
2021/12/18 08:49:10;;;;;;;3.33;1.90;;;;;;;9.48;82.90;102745.84;5036127;28;20555;-73
2021/12/18 08:51:36;;;;;;;4.13;1.80;;;;;;;9.29;82.72;102751.50;5054060;28;20174;-71
2021/12/18 08:54:03;;;;;;;2.20;1.63;;;;;;;9.00;84.17;102759.09;5019295;28;20190;-72
2021/12/18 08:56:28;;;;;;;3.70;2.03;;;;;;;9.18;83.56;102752.56;5035707;28;20179;-73
2021/12/18 08:58:53;;;;;;;4.57;1.60;;;;;;;9.46;83.04;102737.88;5035772;28;20187;-72
2021/12/18 09:01:21;;;;;;;3.13;1.50;;;;;;;9.35;82.41;102729.19;5035582;28;20217;-72
2021/12/18 09:03:46;;;;;;;2.33;1.67;;;;;;;9.67;81.46;102729.50;5019711;28;20353;-72
2021/12/18 09:06:12;;;;;;;3.97;1.97;;;;;;;9.79;81.75;102722.16;5036055;28;20175;-73
2021/12/18 09:08:37;;;;;;;4.13;1.20;;;;;;;9.43;81.82;102721.06;5053935;28;20201;-72
2021/12/18 09:11:02;;;;;;;0.80;0.77;;;;;;;8.90;83.20;102736.16;5053751;28;20183;-72
2021/12/18 09:13:27;;;;;;;2.00;1.20;;;;;;;9.50;82.87;102738.69;5035397;28;20708;-71
2021/12/18 09:15:53;;;;;;;1.67;1.07;;;;;;;9.32;82.43;102715.94;5035503;28;20163;-71
2021/12/18 09:18:18;;;;;;;1.00;0.90;;;;;;;9.18;82.75;102731.25;5053425;28;20224;-72
2021/12/18 09:20:46;;;;;;;1.60;0.87;;;;;;;8.64;83.58;102705.50;5035447;28;20673;-72
2021/12/18 09:23:15;;;;;;;2.67;1.10;;;;;;;8.97;83.50;102720.06;5053192;28;20195;-72
2021/12/18 09:25:41;;;;;;;2.77;1.20;;;;;;;9.32;82.53;102705.28;5035830;28;20289;-72
2021/12/18 09:28:06;;;;;;;1.30;1.10;;;;;;;9.39;82.33;102710.47;5035207;28;20521;-72
2021/12/18 09:30:31;;;;;;;1.60;1.23;;;;;;;9.31;81.88;102709.72;5035224;28;20235;-72
2021/12/18 09:32:58;;;;;;;2.30;1.50;;;;;;;9.66;81.97;102733.06;5035518;28;20210;-72
2021/12/18 09:35:23;;;;;;;1.57;1.17;;;;;;;9.68;81.80;102717.91;5053909;28;20561;-72
2021/12/18 09:37:48;;;;;;;1.60;1.20;;;;;;;9.52;81.68;102702.22;5035430;28;20209;-72
2021/12/18 09:40:16;;;;;;;1.13;0.80;;;;;;;9.31;82.98;102709.72;5035018;28;20635;-72
2021/12/18 09:42:41;;;;;;;3.50;1.40;;;;;;;9.50;82.39;102712.91;5053075;28;20171;-71
2021/12/18 09:45:07;;;;;;;0.90;0.80;;;;;;;9.44;82.00;102698.81;5034990;28;20202;-71
2021/12/18 09:47:32;;;;;;;2.50;1.10;;;;;;;9.52;81.90;102686.22;5035452;28;20655;-73
2021/12/18 09:49:58;;;;;;;2.40;1.77;;;;;;;9.51;81.99;102689.81;5053035;28;20199;-72
2021/12/18 09:52:25;;;;;;;2.57;1.50;;;;;;;9.54;81.97;102687.06;5052883;28;20167;-72
2021/12/18 09:54:55;;;;;;;1.40;1.30;;;;;;;9.33;83.09;102693.72;5053049;28;20205;-70
2021/12/18 09:57:20;;;;;;;1.87;1.20;;;;;;;8.93;83.12;102673.09;5035438;28;20167;-71
2021/12/18 09:59:45;;;;;;;2.60;1.63;;;;;;;9.01;83.39;102681.81;5053223;28;20265;-72
2021/12/18 10:02:11;;;;;;;1.87;1.00;;;;;;;8.95;83.33;102671.28;5035363;28;20171;-73
2021/12/18 10:04:37;;;;;;;1.33;1.00;;;;;;;8.83;83.78;102681.25;5035429;28;20218;-72
2021/12/18 10:07:18;;;;;;;1.30;1.00;;;;;;;8.99;84.82;102707.59;5053329;28;20171;-72
2021/12/18 10:09:44;;;;;;;1.80;1.30;;;;;;;9.03;83.60;102680.00;5035853;28;20160;-72
2021/12/18 10:12:14;;;;;;;1.30;0.80;;;;;;;9.16;82.99;102677.13;5035212;28;20236;-70
2021/12/18 10:14:46;;;;;;;0.90;0.80;;;;;;;9.28;82.38;102666.22;5035374;28;20191;-71
2021/12/18 10:17:36;;;;;;;0.67;0.67;;;;;;;9.24;82.17;102657.41;5035024;28;20206;-73
2021/12/18 10:20:10;;;;;;;0.80;0.50;;;;;;;9.47;82.01;102662.34;5035495;28;20587;-72
2021/12/18 10:22:46;;;;;;;0.80;0.70;;;;;;;9.52;81.18;102668.44;5053068;28;20175;-73
2021/12/18 10:25:12;;;;;;;0.70;0.70;;;;;;;9.30;82.02;102661.78;5035210;28;20275;-71
2021/12/18 10:27:38;;;;;;;1.17;0.80;;;;;;;9.39;82.16;102656.28;5052623;28;20648;-72
2021/12/18 10:30:16;;;;;;;1.60;1.10;;;;;;;9.39;82.61;102653.63;5052618;28;20674;-73
2021/12/18 10:32:56;;;;;;;0.97;0.70;;;;;;;9.74;80.88;102652.03;5035066;28;20155;-73
2021/12/18 10:35:22;;;;;;;0.80;0.80;;;;;;;9.67;80.20;102640.63;5052813;28;20168;-72
2021/12/18 10:37:48;;;;;;;1.27;1.07;;;;;;;9.45;81.91;102640.16;5034764;28;20274;-72
2021/12/18 10:40:13;;;;;;;15.37;3.73;;;;;;;9.58;81.57;102643.44;5053129;28;20185;-72
2021/12/18 10:42:44;;;;;;;4.03;1.90;;;;;;;9.85;81.02;102660.69;5034478;28;20174;-72
2021/12/18 10:45:18;;;;;;;1.10;0.80;;;;;;;9.60;81.54;102645.19;5052485;28;20191;-72
2021/12/18 10:48:04;;;;;;;0.73;0.73;;;;;;;9.30;82.78;102654.66;5052477;28;20162;-70
2021/12/18 10:50:50;;;;;;;1.40;1.10;;;;;;;9.57;81.83;102644.38;5018405;28;20168;-71
2021/12/18 10:53:24;;;;;;;2.03;1.10;;;;;;;9.44;82.19;102635.75;5039290;28;20222;-71
2021/12/18 10:55:55;;;;;;;0.80;0.80;;;;;;;9.62;81.69;102646.03;5039646;28;20565;-71
2021/12/18 10:58:26;;;;;;;1.40;1.10;;;;;;;9.35;81.65;102611.94;5038451;28;20160;-71
2021/12/18 11:01:00;;;;;;;0.90;0.70;;;;;;;9.63;80.83;102618.44;5056378;28;20201;-72
2021/12/18 11:03:33;;;;;;;1.03;0.73;;;;;;;10.07;80.26;102611.31;5056364;28;20198;-71
2021/12/18 11:06:06;;;;;;;1.87;1.00;;;;;;;10.02;80.31;102605.16;5037727;28;20559;-73
2021/12/18 11:08:33;;;;;;;1.40;0.80;;;;;;;9.49;80.90;102598.34;5037998;28;20176;-72
2021/12/18 11:13:50;;;;;;;1.50;0.70;;;;;;;9.67;80.50;102582.84;5055550;28;20198;-71
2021/12/18 11:16:19;;;;;;;1.13;0.70;;;;;;;9.53;80.33;102571.56;5055880;28;20163;-71
2021/12/18 11:18:46;;;;;;;1.43;0.73;;;;;;;9.80;79.68;102575.44;5038004;28;20205;-71
2021/12/18 11:21:11;;;;;;;0.80;0.67;;;;;;;9.46;80.10;102555.75;5055307;28;20679;-71
2021/12/18 11:23:40;;;;;;;1.90;1.10;;;;;;;9.39;80.63;102565.66;5037511;28;20195;-71
2021/12/18 11:26:08;;;;;;;0.53;0.50;;;;;;;9.69;80.39;102559.69;5037437;28;20195;-71
2021/12/18 11:28:35;;;;;;;3.37;1.43;;;;;;;9.58;79.54;102540.38;5037725;28;20274;-71
2021/12/18 11:31:01;;;;;;;5.37;1.53;;;;;;;9.74;80.00;102556.03;5037773;28;20171;-70
2021/12/18 11:33:26;;;;;;;10.33;3.30;;;;;;;9.94;79.32;102544.00;5055107;28;20215;-71
2021/12/18 11:35:52;;;;;;;6.67;2.53;;;;;;;9.66;79.44;102535.78;5037740;28;20171;-71
2021/12/18 11:38:18;;;;;;;0.70;0.70;;;;;;;9.12;80.36;102544.91;5037269;28;20547;-73
2021/12/18 11:40:44;;;;;;;0.50;0.50;;;;;;;9.32;80.05;102540.94;5037662;28;20174;-72
2021/12/18 11:43:38;;;;;;;1.40;0.83;;;;;;;9.43;80.50;102539.81;5020778;28;20710;-72
2021/12/18 11:46:31;;;;;;;0.80;0.80;;;;;;;9.76;79.36;102520.44;5054851;28;20184;-72
2021/12/18 11:49:10;;;;;;;0.83;0.70;;;;;;;9.22;80.25;102535.81;5055123;28;20187;-72
2021/12/18 11:51:36;;;;;;;0.70;0.60;;;;;;;9.42;80.03;102522.97;5054772;28;20258;-71
2021/12/18 11:54:03;;;;;;;0.83;0.83;;;;;;;9.22;80.94;102517.16;5037026;28;20278;-71
2021/12/18 11:56:48;;;;;;;1.43;1.13;;;;;;;9.83;79.62;102524.72;5037075;28;20175;-73
2021/12/18 11:59:15;;;;;;;1.47;0.87;;;;;;;9.57;80.98;102525.28;5037689;28;20485;-71
2021/12/18 12:01:44;;;;;;;2.53;1.37;;;;;;;9.40;80.87;102524.78;5020424;28;20183;-70
2021/12/18 12:04:10;;;;;;;1.70;1.30;;;;;;;9.33;80.12;102494.72;5053861;28;20201;-71